LICR/REG METAR and TAF weather

Enter ICAO airport designator
Station Type Date Time Source
LICR METAR 2022/12/04 12:20 UTC NOAA

LICR 041220Z AUTO 21012KT 9999 FEW037/// 20/16 Q1016


Station Type Date Time Source
LICR Decoded METAR 2022/12/04 12:20 UTC NOAA

Reggio Calabria, Italy (LICR) 38-04N 015-39E 21M
Dec 04, 2022 - 07:20 AM EST / 2022.12.04 1220 UTC
Wind: from the SSW (210 degrees) at 14 MPH (12 KT):0
Visibility: greater than 7 mile(s):0
Sky conditions: mostly clear
Temperature: 68 F (20 C)
Dew Point: 60 F (16 C)
Relative Humidity: 77%
Pressure (altimeter): 30.00 in. Hg (1016 hPa)
ob: LICR 041220Z AUTO 21012KT 9999 FEW037/// 20/16 Q1016
cycle: 12

Station Type Date Time Source
LICR TAF 2022/12/04 12:25 UTC NOAA

TAF LICR 041100Z 0412/0512 VRB05KT 9999 SCT030
BECMG 0500/0502 18010KT

Example: see airport list